sensor_id;sensor_type;location;lat;lon;timestamp;temperature;humidity
41928;DHT22;27616;51.420;6.788;2023-02-01T00:00:49;5.60;99.90
41928;DHT22;27616;51.420;6.788;2023-02-01T00:03:14;5.60;99.90
41928;DHT22;27616;51.420;6.788;2023-02-01T00:05:40;5.60;99.90
41928;DHT22;27616;51.420;6.788;2023-02-01T00:08:06;5.70;99.90
41928;DHT22;27616;51.420;6.788;2023-02-01T00:10:31;5.70;99.90
41928;DHT22;27616;51.420;6.788;2023-02-01T00:12:57;5.70;99.90
41928;DHT22;27616;51.420;6.788;2023-02-01T00:15:23;5.70;99.90
41928;DHT22;27616;51.420;6.788;2023-02-01T00:17:53;5.70;99.90
41928;DHT22;27616;51.420;6.788;2023-02-01T00:20:19;5.70;99.90
41928;DHT22;27616;51.420;6.788;2023-02-01T00:22:45;5.60;99.90
41928;DHT22;27616;51.420;6.788;2023-02-01T00:25:10;5.60;99.90
41928;DHT22;27616;51.420;6.788;2023-02-01T00:27:36;5.70;99.90
41928;DHT22;27616;51.420;6.788;2023-02-01T00:30:02;5.70;99.90
41928;DHT22;27616;51.420;6.788;2023-02-01T00:32:28;5.70;99.90
41928;DHT22;27616;51.420;6.788;2023-02-01T00:34:54;5.70;99.90
41928;DHT22;27616;51.420;6.788;2023-02-01T00:37:20;5.80;99.90
41928;DHT22;27616;51.420;6.788;2023-02-01T00:39:47;5.70;99.90
41928;DHT22;27616;51.420;6.788;2023-02-01T00:42:12;5.70;99.90
41928;DHT22;27616;51.420;6.788;2023-02-01T00:44:38;5.80;99.90
41928;DHT22;27616;51.420;6.788;2023-02-01T00:47:04;5.70;99.90
41928;DHT22;27616;51.420;6.788;2023-02-01T00:49:30;5.70;99.90
41928;DHT22;27616;51.420;6.788;2023-02-01T00:51:55;5.70;99.90
41928;DHT22;27616;51.420;6.788;2023-02-01T00:54:21;5.70;99.90
41928;DHT22;27616;51.420;6.788;2023-02-01T00:56:47;5.70;99.90
41928;DHT22;27616;51.420;6.788;2023-02-01T00:59:12;5.70;99.90
41928;DHT22;27616;51.420;6.788;2023-02-01T01:01:38;5.80;99.90
41928;DHT22;27616;51.420;6.788;2023-02-01T01:04:04;5.80;99.90
41928;DHT22;27616;51.420;6.788;2023-02-01T01:06:32;5.80;99.90
41928;DHT22;27616;51.420;6.788;2023-02-01T01:09:00;5.90;99.90
41928;DHT22;27616;51.420;6.788;2023-02-01T01:11:29;5.90;99.90
41928;DHT22;27616;51.420;6.788;2023-02-01T01:13:56;5.90;99.90
41928;DHT22;27616;51.420;6.788;2023-02-01T01:16:24;5.90;99.90
41928;DHT22;27616;51.420;6.788;2023-02-01T01:18:50;5.90;99.90
41928;DHT22;27616;51.420;6.788;2023-02-01T01:21:17;5.90;99.90
41928;DHT22;27616;51.420;6.788;2023-02-01T01:23:44;5.90;99.90
41928;DHT22;27616;51.420;6.788;2023-02-01T01:26:16;5.90;99.90
41928;DHT22;27616;51.420;6.788;2023-02-01T01:28:42;5.90;99.90
41928;DHT22;27616;51.420;6.788;2023-02-01T01:31:09;5.90;99.90
41928;DHT22;27616;51.420;6.788;2023-02-01T01:33:36;5.90;99.90
41928;DHT22;27616;51.420;6.788;2023-02-01T01:36:05;6.00;99.90
41928;DHT22;27616;51.420;6.788;2023-02-01T01:38:30;5.90;99.90
41928;DHT22;27616;51.420;6.788;2023-02-01T01:40:57;5.90;99.90
41928;DHT22;27616;51.420;6.788;2023-02-01T01:43:22;5.90;99.90
41928;DHT22;27616;51.420;6.788;2023-02-01T01:45:50;5.90;99.90
41928;DHT22;27616;51.420;6.788;2023-02-01T01:48:28;5.90;99.90
41928;DHT22;27616;51.420;6.788;2023-02-01T01:51:00;5.90;99.90
41928;DHT22;27616;51.420;6.788;2023-02-01T01:53:31;5.90;99.90
41928;DHT22;27616;51.420;6.788;2023-02-01T01:55:59;5.90;99.90
41928;DHT22;27616;51.420;6.788;2023-02-01T01:58:27;5.90;99.90
41928;DHT22;27616;51.420;6.788;2023-02-01T02:00:54;5.80;99.90
41928;DHT22;27616;51.420;6.788;2023-02-01T02:03:25;5.80;99.90
41928;DHT22;27616;51.420;6.788;2023-02-01T02:05:55;5.70;99.90
41928;DHT22;27616;51.420;6.788;2023-02-01T02:08:24;5.70;99.90
41928;DHT22;27616;51.420;6.788;2023-02-01T02:10:51;5.70;99.90
41928;DHT22;27616;51.420;6.788;2023-02-01T02:13:38;5.60;99.90
41928;DHT22;27616;51.420;6.788;2023-02-01T02:16:27;5.60;99.90
41928;DHT22;27616;51.420;6.788;2023-02-01T02:28:29;5.50;99.90
41928;DHT22;27616;51.420;6.788;2023-02-01T02:33:49;5.40;99.90
41928;DHT22;27616;51.420;6.788;2023-02-01T02:36:41;5.40;99.90
41928;DHT22;27616;51.420;6.788;2023-02-01T02:40:14;5.40;99.90
41928;DHT22;27616;51.420;6.788;2023-02-01T02:42:25;5.30;99.90
41928;DHT22;27616;51.420;6.788;2023-02-01T02:45:22;5.30;99.90
41928;DHT22;27616;51.420;6.788;2023-02-01T02:48:44;5.20;99.90
41928;DHT22;27616;51.420;6.788;2023-02-01T02:51:12;5.20;99.90
41928;DHT22;27616;51.420;6.788;2023-02-01T02:54:13;5.10;99.90
41928;DHT22;27616;51.420;6.788;2023-02-01T02:57:00;5.00;99.90
41928;DHT22;27616;51.420;6.788;2023-02-01T02:59:46;5.00;99.90
41928;DHT22;27616;51.420;6.788;2023-02-01T03:02:33;5.00;99.90
41928;DHT22;27616;51.420;6.788;2023-02-01T03:05:17;5.00;99.90
41928;DHT22;27616;51.420;6.788;2023-02-01T03:08:00;4.90;99.90
41928;DHT22;27616;51.420;6.788;2023-02-01T03:21:27;5.00;99.90
41928;DHT22;27616;51.420;6.788;2023-02-01T03:23:59;5.00;99.90
41928;DHT22;27616;51.420;6.788;2023-02-01T03:26:28;5.00;99.90
41928;DHT22;27616;51.420;6.788;2023-02-01T03:29:03;5.10;99.90
41928;DHT22;27616;51.420;6.788;2023-02-01T03:31:31;5.10;99.90
41928;DHT22;27616;51.420;6.788;2023-02-01T03:33:58;5.10;99.90
41928;DHT22;27616;51.420;6.788;2023-02-01T03:36:31;5.10;99.90
41928;DHT22;27616;51.420;6.788;2023-02-01T03:39:05;5.20;99.90
41928;DHT22;27616;51.420;6.788;2023-02-01T03:41:40;5.20;99.90
41928;DHT22;27616;51.420;6.788;2023-02-01T03:49:18;5.30;99.90
41928;DHT22;27616;51.420;6.788;2023-02-01T03:51:46;5.30;99.90
41928;DHT22;27616;51.420;6.788;2023-02-01T03:54:15;5.30;99.90
41928;DHT22;27616;51.420;6.788;2023-02-01T03:56:43;5.30;99.90
41928;DHT22;27616;51.420;6.788;2023-02-01T03:59:10;5.30;99.90
41928;DHT22;27616;51.420;6.788;2023-02-01T04:01:37;5.30;99.90
41928;DHT22;27616;51.420;6.788;2023-02-01T04:04:03;5.30;99.90
41928;DHT22;27616;51.420;6.788;2023-02-01T04:06:29;5.30;99.90
41928;DHT22;27616;51.420;6.788;2023-02-01T04:08:59;5.30;99.90
41928;DHT22;27616;51.420;6.788;2023-02-01T04:11:24;5.30;99.90
41928;DHT22;27616;51.420;6.788;2023-02-01T04:13:53;5.30;99.90
41928;DHT22;27616;51.420;6.788;2023-02-01T04:16:18;5.20;99.90
41928;DHT22;27616;51.420;6.788;2023-02-01T04:18:44;5.20;99.90
41928;DHT22;27616;51.420;6.788;2023-02-01T04:21:10;5.20;99.90
41928;DHT22;27616;51.420;6.788;2023-02-01T04:23:35;5.10;99.90
41928;DHT22;27616;51.420;6.788;2023-02-01T04:26:03;5.10;99.90
41928;DHT22;27616;51.420;6.788;2023-02-01T04:28:29;5.10;99.90
41928;DHT22;27616;51.420;6.788;2023-02-01T04:30:56;5.10;99.90
41928;DHT22;27616;51.420;6.788;2023-02-01T04:33:22;5.10;99.90
41928;DHT22;27616;51.420;6.788;2023-02-01T04:35:48;5.10;99.90
41928;DHT22;27616;51.420;6.788;2023-02-01T04:38:14;5.10;99.90
41928;DHT22;27616;51.420;6.788;2023-02-01T04:40:39;5.10;99.90
41928;DHT22;27616;51.420;6.788;2023-02-01T04:43:05;5.10;99.90
41928;DHT22;27616;51.420;6.788;2023-02-01T04:45:31;5.10;99.90
41928;DHT22;27616;51.420;6.788;2023-02-01T04:47:57;5.10;99.90
41928;DHT22;27616;51.420;6.788;2023-02-01T04:50:22;5.20;99.90
41928;DHT22;27616;51.420;6.788;2023-02-01T04:52:49;5.20;99.90
41928;DHT22;27616;51.420;6.788;2023-02-01T04:55:15;5.20;99.90
41928;DHT22;27616;51.420;6.788;2023-02-01T04:57:41;5.30;99.90
41928;DHT22;27616;51.420;6.788;2023-02-01T05:00:08;5.20;99.90
41928;DHT22;27616;51.420;6.788;2023-02-01T05:02:34;5.20;99.90
41928;DHT22;27616;51.420;6.788;2023-02-01T05:05:01;5.20;99.90
41928;DHT22;27616;51.420;6.788;2023-02-01T05:07:27;5.20;99.90
41928;DHT22;27616;51.420;6.788;2023-02-01T05:09:52;5.30;99.90
41928;DHT22;27616;51.420;6.788;2023-02-01T05:12:18;5.20;99.90
41928;DHT22;27616;51.420;6.788;2023-02-01T05:15:19;5.20;99.90
41928;DHT22;27616;51.420;6.788;2023-02-01T05:17:45;5.30;99.90
41928;DHT22;27616;51.420;6.788;2023-02-01T05:20:11;5.30;99.90
41928;DHT22;27616;51.420;6.788;2023-02-01T05:22:37;5.30;99.90
41928;DHT22;27616;51.420;6.788;2023-02-01T05:25:03;5.30;99.90
41928;DHT22;27616;51.420;6.788;2023-02-01T05:27:30;5.20;99.90
41928;DHT22;27616;51.420;6.788;2023-02-01T05:29:56;5.20;99.90
41928;DHT22;27616;51.420;6.788;2023-02-01T05:32:21;5.10;99.90
41928;DHT22;27616;51.420;6.788;2023-02-01T05:34:47;5.20;99.90
41928;DHT22;27616;51.420;6.788;2023-02-01T05:37:13;5.10;99.90
41928;DHT22;27616;51.420;6.788;2023-02-01T05:39:39;5.10;99.90
41928;DHT22;27616;51.420;6.788;2023-02-01T05:42:04;5.00;99.90
41928;DHT22;27616;51.420;6.788;2023-02-01T05:44:30;5.00;99.90
41928;DHT22;27616;51.420;6.788;2023-02-01T05:46:56;5.00;99.90
41928;DHT22;27616;51.420;6.788;2023-02-01T05:49:21;5.00;99.90
41928;DHT22;27616;51.420;6.788;2023-02-01T05:51:47;4.90;99.90
41928;DHT22;27616;51.420;6.788;2023-02-01T05:54:13;4.90;99.90
41928;DHT22;27616;51.420;6.788;2023-02-01T05:56:38;4.90;99.90
41928;DHT22;27616;51.420;6.788;2023-02-01T05:59:06;4.90;99.90
41928;DHT22;27616;51.420;6.788;2023-02-01T06:01:31;4.90;99.90
41928;DHT22;27616;51.420;6.788;2023-02-01T06:03:57;4.90;99.90
41928;DHT22;27616;51.420;6.788;2023-02-01T06:06:23;4.90;99.90
41928;DHT22;27616;51.420;6.788;2023-02-01T06:08:48;5.00;99.90
41928;DHT22;27616;51.420;6.788;2023-02-01T06:11:14;5.00;99.90
41928;DHT22;27616;51.420;6.788;2023-02-01T06:13:40;5.00;99.90
41928;DHT22;27616;51.420;6.788;2023-02-01T06:16:06;5.00;99.90
41928;DHT22;27616;51.420;6.788;2023-02-01T06:18:33;5.00;99.90
41928;DHT22;27616;51.420;6.788;2023-02-01T06:20:59;5.10;99.90
41928;DHT22;27616;51.420;6.788;2023-02-01T06:23:26;5.10;99.90
41928;DHT22;27616;51.420;6.788;2023-02-01T06:25:57;5.20;99.90
41928;DHT22;27616;51.420;6.788;2023-02-01T06:28:24;5.20;99.90
41928;DHT22;27616;51.420;6.788;2023-02-01T06:30:50;5.20;99.90
41928;DHT22;27616;51.420;6.788;2023-02-01T06:33:16;5.20;99.90
41928;DHT22;27616;51.420;6.788;2023-02-01T06:35:42;5.30;99.90
41928;DHT22;27616;51.420;6.788;2023-02-01T06:38:11;5.40;99.90
41928;DHT22;27616;51.420;6.788;2023-02-01T06:40:37;5.30;99.90
41928;DHT22;27616;51.420;6.788;2023-02-01T06:43:03;5.40;99.90
41928;DHT22;27616;51.420;6.788;2023-02-01T06:45:29;5.40;99.90
41928;DHT22;27616;51.420;6.788;2023-02-01T06:47:55;5.50;99.90
41928;DHT22;27616;51.420;6.788;2023-02-01T06:50:21;5.50;99.90
41928;DHT22;27616;51.420;6.788;2023-02-01T06:52:46;5.50;99.90
41928;DHT22;27616;51.420;6.788;2023-02-01T06:55:12;5.60;99.90
41928;DHT22;27616;51.420;6.788;2023-02-01T06:57:39;5.60;99.90
41928;DHT22;27616;51.420;6.788;2023-02-01T07:00:05;5.60;99.90
41928;DHT22;27616;51.420;6.788;2023-02-01T07:02:31;5.60;99.90
41928;DHT22;27616;51.420;6.788;2023-02-01T07:04:56;5.60;99.90
41928;DHT22;27616;51.420;6.788;2023-02-01T07:07:22;5.70;99.90
41928;DHT22;27616;51.420;6.788;2023-02-01T07:09:50;5.70;99.90
41928;DHT22;27616;51.420;6.788;2023-02-01T07:12:16;5.70;99.90
41928;DHT22;27616;51.420;6.788;2023-02-01T07:14:42;5.70;99.90
41928;DHT22;27616;51.420;6.788;2023-02-01T07:17:07;5.70;99.90
41928;DHT22;27616;51.420;6.788;2023-02-01T07:19:33;5.70;99.90
41928;DHT22;27616;51.420;6.788;2023-02-01T07:21:59;5.80;99.90
41928;DHT22;27616;51.420;6.788;2023-02-01T07:24:25;5.80;99.90
41928;DHT22;27616;51.420;6.788;2023-02-01T07:26:50;5.80;99.90
41928;DHT22;27616;51.420;6.788;2023-02-01T07:29:18;5.90;99.90
41928;DHT22;27616;51.420;6.788;2023-02-01T07:31:45;5.90;99.90
41928;DHT22;27616;51.420;6.788;2023-02-01T07:34:11;5.90;99.90
41928;DHT22;27616;51.420;6.788;2023-02-01T07:36:36;5.80;99.90
41928;DHT22;27616;51.420;6.788;2023-02-01T07:39:05;5.90;99.90
41928;DHT22;27616;51.420;6.788;2023-02-01T07:41:31;5.80;99.90
41928;DHT22;27616;51.420;6.788;2023-02-01T07:43:56;5.80;99.90
41928;DHT22;27616;51.420;6.788;2023-02-01T07:46:23;5.90;99.90
41928;DHT22;27616;51.420;6.788;2023-02-01T07:48:48;6.30;99.90
41928;DHT22;27616;51.420;6.788;2023-02-01T07:51:16;6.50;99.90
41928;DHT22;27616;51.420;6.788;2023-02-01T07:53:43;6.50;99.90
41928;DHT22;27616;51.420;6.788;2023-02-01T07:58:38;6.40;99.90
41928;DHT22;27616;51.420;6.788;2023-02-01T08:01:04;6.30;99.90
41928;DHT22;27616;51.420;6.788;2023-02-01T08:03:50;6.30;99.90
41928;DHT22;27616;51.420;6.788;2023-02-01T08:06:17;6.30;99.90
41928;DHT22;27616;51.420;6.788;2023-02-01T08:08:46;6.10;99.90
41928;DHT22;27616;51.420;6.788;2023-02-01T08:11:13;6.10;99.90
41928;DHT22;27616;51.420;6.788;2023-02-01T08:13:39;6.10;99.90
41928;DHT22;27616;51.420;6.788;2023-02-01T08:16:07;6.10;99.90
41928;DHT22;27616;51.420;6.788;2023-02-01T08:18:34;6.10;99.90
41928;DHT22;27616;51.420;6.788;2023-02-01T08:21:18;6.10;99.90
41928;DHT22;27616;51.420;6.788;2023-02-01T08:23:45;6.10;99.90
41928;DHT22;27616;51.420;6.788;2023-02-01T08:28:50;6.10;99.90
41928;DHT22;27616;51.420;6.788;2023-02-01T08:31:17;6.10;99.90
41928;DHT22;27616;51.420;6.788;2023-02-01T08:33:48;6.20;99.90
41928;DHT22;27616;51.420;6.788;2023-02-01T08:36:14;6.30;99.90
41928;DHT22;27616;51.420;6.788;2023-02-01T08:38:40;6.20;99.90
41928;DHT22;27616;51.420;6.788;2023-02-01T08:41:14;6.30;99.90
41928;DHT22;27616;51.420;6.788;2023-02-01T08:43:41;6.20;99.90
41928;DHT22;27616;51.420;6.788;2023-02-01T08:46:08;6.20;99.90
41928;DHT22;27616;51.420;6.788;2023-02-01T08:48:34;6.20;99.90
41928;DHT22;27616;51.420;6.788;2023-02-01T08:51:08;6.20;99.90
41928;DHT22;27616;51.420;6.788;2023-02-01T08:53:35;6.30;99.90
41928;DHT22;27616;51.420;6.788;2023-02-01T08:56:02;6.30;99.90
41928;DHT22;27616;51.420;6.788;2023-02-01T08:58:28;6.30;99.90
41928;DHT22;27616;51.420;6.788;2023-02-01T09:00:54;6.40;99.90
41928;DHT22;27616;51.420;6.788;2023-02-01T09:03:21;6.40;99.90
41928;DHT22;27616;51.420;6.788;2023-02-01T09:05:46;6.40;99.90
41928;DHT22;27616;51.420;6.788;2023-02-01T09:08:13;6.30;99.90
41928;DHT22;27616;51.420;6.788;2023-02-01T09:10:41;6.30;99.90
41928;DHT22;27616;51.420;6.788;2023-02-01T09:13:07;6.30;99.90
41928;DHT22;27616;51.420;6.788;2023-02-01T09:15:33;6.30;99.90
41928;DHT22;27616;51.420;6.788;2023-02-01T09:17:59;6.30;99.90
41928;DHT22;27616;51.420;6.788;2023-02-01T09:20:25;6.20;99.90
41928;DHT22;27616;51.420;6.788;2023-02-01T09:22:52;6.20;99.90
41928;DHT22;27616;51.420;6.788;2023-02-01T09:25:18;6.20;99.90
41928;DHT22;27616;51.420;6.788;2023-02-01T09:27:44;6.20;99.90
41928;DHT22;27616;51.420;6.788;2023-02-01T09:30:10;6.20;99.90
41928;DHT22;27616;51.420;6.788;2023-02-01T09:32:36;6.20;99.90
41928;DHT22;27616;51.420;6.788;2023-02-01T09:35:02;6.30;99.90
41928;DHT22;27616;51.420;6.788;2023-02-01T09:37:27;6.30;99.90
41928;DHT22;27616;51.420;6.788;2023-02-01T09:39:53;6.30;99.90
41928;DHT22;27616;51.420;6.788;2023-02-01T09:45:19;6.50;99.90
41928;DHT22;27616;51.420;6.788;2023-02-01T09:47:55;6.60;99.90
41928;DHT22;27616;51.420;6.788;2023-02-01T09:50:34;6.60;99.90
41928;DHT22;27616;51.420;6.788;2023-02-01T09:55:57;6.70;99.90
41928;DHT22;27616;51.420;6.788;2023-02-01T09:58:38;6.80;99.90
41928;DHT22;27616;51.420;6.788;2023-02-01T10:01:15;6.80;99.90
41928;DHT22;27616;51.420;6.788;2023-02-01T10:03:42;6.80;99.90
41928;DHT22;27616;51.420;6.788;2023-02-01T10:09:37;6.80;99.90
41928;DHT22;27616;51.420;6.788;2023-02-01T10:26:22;8.10;99.90
41928;DHT22;27616;51.420;6.788;2023-02-01T10:28:58;8.00;99.90
41928;DHT22;27616;51.420;6.788;2023-02-01T10:31:28;8.10;99.90
41928;DHT22;27616;51.420;6.788;2023-02-01T10:34:00;7.90;99.90
41928;DHT22;27616;51.420;6.788;2023-02-01T10:36:33;7.70;99.90
41928;DHT22;27616;51.420;6.788;2023-02-01T10:39:04;7.60;99.90
41928;DHT22;27616;51.420;6.788;2023-02-01T10:41:38;7.50;99.90
41928;DHT22;27616;51.420;6.788;2023-02-01T10:44:10;7.50;99.90
41928;DHT22;27616;51.420;6.788;2023-02-01T10:46:37;7.30;99.90
41928;DHT22;27616;51.420;6.788;2023-02-01T10:49:04;7.20;99.90
41928;DHT22;27616;51.420;6.788;2023-02-01T10:54:18;7.20;99.90
41928;DHT22;27616;51.420;6.788;2023-02-01T10:56:46;7.30;99.90
41928;DHT22;27616;51.420;6.788;2023-02-01T10:59:20;7.30;99.90
41928;DHT22;27616;51.420;6.788;2023-02-01T11:01:48;7.30;99.90
41928;DHT22;27616;51.420;6.788;2023-02-01T11:04:20;7.30;99.90
41928;DHT22;27616;51.420;6.788;2023-02-01T11:07:04;7.20;99.90
41928;DHT22;27616;51.420;6.788;2023-02-01T11:09:38;7.30;99.90
41928;DHT22;27616;51.420;6.788;2023-02-01T11:12:10;7.60;99.90
41928;DHT22;27616;51.420;6.788;2023-02-01T11:14:47;8.00;99.90
41928;DHT22;27616;51.420;6.788;2023-02-01T11:17:17;8.30;99.90
41928;DHT22;27616;51.420;6.788;2023-02-01T11:19:46;8.40;99.90
41928;DHT22;27616;51.420;6.788;2023-02-01T11:22:13;8.20;99.90
41928;DHT22;27616;51.420;6.788;2023-02-01T11:24:40;8.00;99.90
41928;DHT22;27616;51.420;6.788;2023-02-01T11:27:21;7.90;99.90
41928;DHT22;27616;51.420;6.788;2023-02-01T11:29:51;7.80;99.90
41928;DHT22;27616;51.420;6.788;2023-02-01T11:32:19;7.70;99.90
41928;DHT22;27616;51.420;6.788;2023-02-01T11:34:57;7.60;99.90
41928;DHT22;27616;51.420;6.788;2023-02-01T11:37:43;7.50;99.90
41928;DHT22;27616;51.420;6.788;2023-02-01T11:42:58;7.50;99.90
41928;DHT22;27616;51.420;6.788;2023-02-01T11:45:31;7.60;99.90
41928;DHT22;27616;51.420;6.788;2023-02-01T11:47:58;7.60;99.90
41928;DHT22;27616;51.420;6.788;2023-02-01T11:56:28;7.40;99.90
41928;DHT22;27616;51.420;6.788;2023-02-01T12:22:15;7.20;99.90
41928;DHT22;27616;51.420;6.788;2023-02-01T12:35:35;7.40;99.90
41928;DHT22;27616;51.420;6.788;2023-02-01T12:44:01;7.50;99.90
41928;DHT22;27616;51.420;6.788;2023-02-01T12:47:00;7.50;99.90
41928;DHT22;27616;51.420;6.788;2023-02-01T12:53:09;7.60;99.90
41928;DHT22;27616;51.420;6.788;2023-02-01T12:55:36;7.60;99.90
41928;DHT22;27616;51.420;6.788;2023-02-01T12:58:18;7.60;99.90
41928;DHT22;27616;51.420;6.788;2023-02-01T13:01:09;7.50;99.90
41928;DHT22;27616;51.420;6.788;2023-02-01T13:06:32;7.50;99.90
41928;DHT22;27616;51.420;6.788;2023-02-01T13:11:48;7.50;99.90
41928;DHT22;27616;51.420;6.788;2023-02-01T13:16:52;7.60;99.90
41928;DHT22;27616;51.420;6.788;2023-02-01T13:19:27;7.60;99.90
41928;DHT22;27616;51.420;6.788;2023-02-01T13:21:57;7.60;99.90
41928;DHT22;27616;51.420;6.788;2023-02-01T13:24:36;7.60;99.90
41928;DHT22;27616;51.420;6.788;2023-02-01T13:27:03;7.60;99.90
41928;DHT22;27616;51.420;6.788;2023-02-01T13:29:30;7.50;99.90
41928;DHT22;27616;51.420;6.788;2023-02-01T13:32:24;7.60;99.90
41928;DHT22;27616;51.420;6.788;2023-02-01T13:41:11;7.60;99.90
41928;DHT22;27616;51.420;6.788;2023-02-01T13:43:43;7.70;99.90
41928;DHT22;27616;51.420;6.788;2023-02-01T13:46:11;7.70;99.90
41928;DHT22;27616;51.420;6.788;2023-02-01T13:48:54;7.70;99.90
41928;DHT22;27616;51.420;6.788;2023-02-01T13:51:51;7.70;99.90
41928;DHT22;27616;51.420;6.788;2023-02-01T13:54:38;7.80;99.90
41928;DHT22;27616;51.420;6.788;2023-02-01T13:57:29;7.90;99.90
41928;DHT22;27616;51.420;6.788;2023-02-01T13:59:52;7.80;99.90
41928;DHT22;27616;51.420;6.788;2023-02-01T14:05:04;8.00;99.90
41928;DHT22;27616;51.420;6.788;2023-02-01T14:07:33;8.00;99.90
41928;DHT22;27616;51.420;6.788;2023-02-01T14:13:04;8.10;99.90
41928;DHT22;27616;51.420;6.788;2023-02-01T14:15:30;8.10;99.90
41928;DHT22;27616;51.420;6.788;2023-02-01T14:17:56;8.10;99.90
41928;DHT22;27616;51.420;6.788;2023-02-01T14:20:42;8.10;99.90
41928;DHT22;27616;51.420;6.788;2023-02-01T14:23:20;8.10;99.90
41928;DHT22;27616;51.420;6.788;2023-02-01T14:25:56;8.10;99.90
41928;DHT22;27616;51.420;6.788;2023-02-01T14:28:28;8.10;99.90
41928;DHT22;27616;51.420;6.788;2023-02-01T14:30:56;8.10;99.90
41928;DHT22;27616;51.420;6.788;2023-02-01T14:33:26;8.10;99.90
41928;DHT22;27616;51.420;6.788;2023-02-01T14:36:07;8.10;99.90
41928;DHT22;27616;51.420;6.788;2023-02-01T14:38:36;8.10;99.90
41928;DHT22;27616;51.420;6.788;2023-02-01T14:41:29;8.20;99.90
41928;DHT22;27616;51.420;6.788;2023-02-01T14:47:05;8.10;99.90
41928;DHT22;27616;51.420;6.788;2023-02-01T14:49:49;8.10;99.90
41928;DHT22;27616;51.420;6.788;2023-02-01T14:52:20;8.00;99.90
41928;DHT22;27616;51.420;6.788;2023-02-01T14:54:54;8.00;99.90
41928;DHT22;27616;51.420;6.788;2023-02-01T14:57:24;8.00;99.90
41928;DHT22;27616;51.420;6.788;2023-02-01T15:00:00;8.00;99.90
41928;DHT22;27616;51.420;6.788;2023-02-01T15:02:30;8.00;99.90
41928;DHT22;27616;51.420;6.788;2023-02-01T15:04:59;8.00;99.90
41928;DHT22;27616;51.420;6.788;2023-02-01T15:07:26;7.90;99.90
41928;DHT22;27616;51.420;6.788;2023-02-01T15:09:56;8.00;99.90
41928;DHT22;27616;51.420;6.788;2023-02-01T15:12:27;8.00;99.90
41928;DHT22;27616;51.420;6.788;2023-02-01T15:15:24;8.10;99.90
41928;DHT22;27616;51.420;6.788;2023-02-01T15:17:54;8.00;99.90
41928;DHT22;27616;51.420;6.788;2023-02-01T15:22:59;8.10;99.90
41928;DHT22;27616;51.420;6.788;2023-02-01T15:25:30;8.10;99.90
41928;DHT22;27616;51.420;6.788;2023-02-01T15:27:57;8.10;99.90
41928;DHT22;27616;51.420;6.788;2023-02-01T15:30:29;8.10;99.90
41928;DHT22;27616;51.420;6.788;2023-02-01T15:33:25;8.10;99.90
41928;DHT22;27616;51.420;6.788;2023-02-01T15:46:34;8.10;99.90
41928;DHT22;27616;51.420;6.788;2023-02-01T15:49:02;8.10;99.90
41928;DHT22;27616;51.420;6.788;2023-02-01T15:51:30;8.00;99.90
41928;DHT22;27616;51.420;6.788;2023-02-01T15:54:02;8.00;99.90
41928;DHT22;27616;51.420;6.788;2023-02-01T15:56:35;7.90;99.90
41928;DHT22;27616;51.420;6.788;2023-02-01T15:59:03;7.90;99.90
41928;DHT22;27616;51.420;6.788;2023-02-01T16:01:30;7.80;99.90
41928;DHT22;27616;51.420;6.788;2023-02-01T16:04:19;8.00;99.90
41928;DHT22;27616;51.420;6.788;2023-02-01T16:06:50;8.10;99.90
41928;DHT22;27616;51.420;6.788;2023-02-01T16:09:22;8.00;99.90
41928;DHT22;27616;51.420;6.788;2023-02-01T16:12:00;8.10;99.90
41928;DHT22;27616;51.420;6.788;2023-02-01T16:14:26;8.00;99.90
41928;DHT22;27616;51.420;6.788;2023-02-01T16:16:56;8.00;99.90
41928;DHT22;27616;51.420;6.788;2023-02-01T16:19:21;8.00;99.90
41928;DHT22;27616;51.420;6.788;2023-02-01T16:21:51;8.00;99.90
41928;DHT22;27616;51.420;6.788;2023-02-01T16:24:16;8.00;99.90
41928;DHT22;27616;51.420;6.788;2023-02-01T16:26:42;8.00;99.90
41928;DHT22;27616;51.420;6.788;2023-02-01T16:29:08;7.80;99.90
41928;DHT22;27616;51.420;6.788;2023-02-01T16:31:36;7.80;99.90
41928;DHT22;27616;51.420;6.788;2023-02-01T16:34:03;7.80;99.90
41928;DHT22;27616;51.420;6.788;2023-02-01T16:36:30;7.80;99.90
41928;DHT22;27616;51.420;6.788;2023-02-01T16:38:56;7.80;99.90
41928;DHT22;27616;51.420;6.788;2023-02-01T16:41:23;7.80;99.90
41928;DHT22;27616;51.420;6.788;2023-02-01T16:43:51;7.80;99.90
41928;DHT22;27616;51.420;6.788;2023-02-01T16:46:19;7.80;99.90
41928;DHT22;27616;51.420;6.788;2023-02-01T16:48:57;7.80;99.90
41928;DHT22;27616;51.420;6.788;2023-02-01T16:51:25;7.90;99.90
41928;DHT22;27616;51.420;6.788;2023-02-01T16:53:52;7.90;99.90
41928;DHT22;27616;51.420;6.788;2023-02-01T16:56:21;7.90;99.90
41928;DHT22;27616;51.420;6.788;2023-02-01T16:58:47;7.90;99.90
41928;DHT22;27616;51.420;6.788;2023-02-01T17:01:15;7.80;99.90
41928;DHT22;27616;51.420;6.788;2023-02-01T17:03:41;7.80;99.90
41928;DHT22;27616;51.420;6.788;2023-02-01T17:06:10;7.90;99.90
41928;DHT22;27616;51.420;6.788;2023-02-01T17:08:41;7.90;99.90
41928;DHT22;27616;51.420;6.788;2023-02-01T17:11:07;8.00;99.90
41928;DHT22;27616;51.420;6.788;2023-02-01T17:13:33;7.90;99.90
41928;DHT22;27616;51.420;6.788;2023-02-01T17:16:21;7.80;99.90
41928;DHT22;27616;51.420;6.788;2023-02-01T17:18:55;7.80;99.90
41928;DHT22;27616;51.420;6.788;2023-02-01T17:21:23;7.80;99.90
41928;DHT22;27616;51.420;6.788;2023-02-01T17:23:49;7.80;99.90
41928;DHT22;27616;51.420;6.788;2023-02-01T17:26:15;7.70;99.90
41928;DHT22;27616;51.420;6.788;2023-02-01T17:28:40;7.80;99.90
41928;DHT22;27616;51.420;6.788;2023-02-01T17:31:09;7.80;99.90
41928;DHT22;27616;51.420;6.788;2023-02-01T17:33:36;7.80;99.90
41928;DHT22;27616;51.420;6.788;2023-02-01T17:36:04;7.80;99.90
41928;DHT22;27616;51.420;6.788;2023-02-01T17:38:31;7.80;99.90
41928;DHT22;27616;51.420;6.788;2023-02-01T17:40:57;7.80;99.90
41928;DHT22;27616;51.420;6.788;2023-02-01T17:43:25;7.80;99.90
41928;DHT22;27616;51.420;6.788;2023-02-01T17:48:21;7.70;99.90
41928;DHT22;27616;51.420;6.788;2023-02-01T17:50:48;7.70;99.90
41928;DHT22;27616;51.420;6.788;2023-02-01T17:53:24;7.70;99.90
41928;DHT22;27616;51.420;6.788;2023-02-01T17:55:50;7.70;99.90
41928;DHT22;27616;51.420;6.788;2023-02-01T17:58:17;7.70;99.90
41928;DHT22;27616;51.420;6.788;2023-02-01T18:00:44;7.80;99.90
41928;DHT22;27616;51.420;6.788;2023-02-01T18:03:26;7.80;99.90
41928;DHT22;27616;51.420;6.788;2023-02-01T18:05:54;7.70;99.90
41928;DHT22;27616;51.420;6.788;2023-02-01T18:08:22;7.80;99.90
41928;DHT22;27616;51.420;6.788;2023-02-01T18:10:55;7.80;99.90
41928;DHT22;27616;51.420;6.788;2023-02-01T18:13:24;7.80;99.90
41928;DHT22;27616;51.420;6.788;2023-02-01T18:15:50;7.90;99.90
41928;DHT22;27616;51.420;6.788;2023-02-01T18:18:15;7.80;99.90
41928;DHT22;27616;51.420;6.788;2023-02-01T18:20:43;7.80;99.90
41928;DHT22;27616;51.420;6.788;2023-02-01T18:23:27;7.80;99.90
41928;DHT22;27616;51.420;6.788;2023-02-01T18:25:53;7.80;99.90
41928;DHT22;27616;51.420;6.788;2023-02-01T18:28:19;7.80;99.90
41928;DHT22;27616;51.420;6.788;2023-02-01T18:30:47;7.80;99.90
41928;DHT22;27616;51.420;6.788;2023-02-01T18:33:15;7.80;99.90